WetterOnline ( http://www.wetteronline.de )

Wetter aktuell Magdeburg

Aktuelles Wetter: Gardelegen (48m)

6-stündlich | Neueste Meldungen
Ortszeit Temperatur Wetter
Di, 14.08. 14:00 19.8° C Regen
Di, 14.08. 8:00 17.7° C wolkig
Di, 14.08. 2:00 17.1° C fast wolkenlos
Mo, 13.08. 20:00 22.8° C bewölkt
Mo, 13.08. 14:00 27.1° C bewölkt
Mo, 13.08. 8:00 15.1° C leicht bewölkt
Mo, 13.08. 2:00 12.4° C bewölkt
So, 12.08. 20:00 25.5° C wolkig
Ortszeit Temperatur Wetter
Di, 14.08. 17:30 20.6° C bewölkt
Di, 14.08. 17:20 20.6° C bewölkt
Di, 14.08. 17:10 21.4° C bewölkt
Di, 14.08. 17:00 19.9° C bewölkt
Di, 14.08. 16:50 19.9° C bewölkt
Di, 14.08. 16:40 19.7° C bewölkt
Di, 14.08. 16:30 20.4° C Sprühregen
Di, 14.08. 16:00 20.9° C bewölkt
Di, 14.08. 15:30 19.0° C leichter Regen
Di, 14.08. 15:00 22.2° C wolkig
Di, 14.08. 14:30 21.7° C fast wolkenlos
Ortszeit Relative Feuchte Sichtweite
Di, 14.08. 14:00 82% 26 km
Di, 14.08. 8:00 77% 22 km
Di, 14.08. 2:00 80% 60 km
Mo, 13.08. 20:00 59% 35 km
Mo, 13.08. 14:00 31% 29 km
Mo, 13.08. 8:00 55% 70 km
Mo, 13.08. 2:00 69% 70 km
So, 12.08. 20:00 22% 70 km
Ortszeit Relative Feuchte Sichtweite
Di, 14.08. 17:30 81% 50 km
Di, 14.08. 17:20 81% -
Di, 14.08. 17:10 79% -
Di, 14.08. 17:00 84% 70 km
Di, 14.08. 16:50 84% -
Di, 14.08. 16:40 82% -
Di, 14.08. 16:30 80% 50 km
Di, 14.08. 16:00 80% 20 km
Di, 14.08. 15:30 90% 7 km
Di, 14.08. 15:00 68% 30 km
Di, 14.08. 14:30 74% 20 km
Ortszeit Niederschlagsmenge Niederschlagsart
Di, 14.08. 14:00 2 l/m2 in 6 Std. Regen
Di, 14.08. 8:00 0.0 l/m2 in 12 Std. -
Di, 14.08. 2:00 0.0 l/m2 in 6 Std. -
Mo, 13.08. 20:00 0.4 l/m2 in 12 Std. Regen
Mo, 13.08. 14:00 0.0 l/m2 in 6 Std. -
Mo, 13.08. 8:00 0.0 l/m2 in 12 Std. -
Mo, 13.08. 2:00 0.0 l/m2 in 6 Std. -
So, 12.08. 20:00 0.0 l/m2 in 12 Std. -
Ortszeit Niederschlagsmenge Niederschlagsart
Di, 14.08. 17:30 0.1 l/m2 in 1 Std. Schnee
Di, 14.08. 17:20 keine Meldung -
Di, 14.08. 17:10 keine Meldung -
Di, 14.08. 17:00 0.1 l/m2 in 1 Std. Regen
Di, 14.08. 16:50 keine Meldung -
Di, 14.08. 16:40 keine Meldung -
Di, 14.08. 16:30 0.1 l/m2 in 1 Std. -
Di, 14.08. 16:00 1.6 l/m2 in 1 Std. Regen
Di, 14.08. 15:30 1.4 l/m2 in 1 Std. -
Di, 14.08. 15:00 0.0 l/m2 in 1 Std. -
Di, 14.08. 14:30 0.0 l/m2 in 1 Std. -
Ortszeit Stärke Spitze Richtung
km/h Bft. km/h Grad Sektor
Di, 14.08. 14:00 11 2 36 250° W
Di, 14.08. 8:00 11 2 20 240° SW
Di, 14.08. 2:00 9 2 22 220° SW
Mo, 13.08. 20:00 9 2 37 180° S
Mo, 13.08. 14:00 22 4 44 240° SW
Mo, 13.08. 8:00 0 0 7 - -
Mo, 13.08. 2:00 0 0 4 - -
So, 12.08. 20:00 2 1 43 350° N
Ortszeit Stärke Spitze Richtung
km/h Bft. km/h Grad Sektor
Di, 14.08. 17:30 14 3 25 220° SW
Di, 14.08. 17:20 14 3 - 220° SW
Di, 14.08. 17:10 14 3 - 220° SW
Di, 14.08. 17:00 13 3 30 230° SW
Di, 14.08. 16:50 13 3 - 230° SW
Di, 14.08. 16:40 13 3 - 230° SW
Di, 14.08. 16:30 14 3 29 250° W
Di, 14.08. 16:00 15 3 33 230° SW
Di, 14.08. 15:30 13 3 33 260° W
Di, 14.08. 15:00 15 3 30 250° W
Di, 14.08. 14:30 14 3 25 250° W
Ortszeit Untergrenze Bedeckung Gattung
total tief tief mittel hoch
Di, 14.08. 14:00 720 m 7/8 6/8 - - -
Di, 14.08. 8:00 630 m 6/8 6/8 - - -
Di, 14.08. 2:00 600 m 0/8 0/8 - - -
Mo, 13.08. 20:00 1500 m 7/8 6/8 - - -
Mo, 13.08. 14:00 3600 m 7/8 7/8 - - -
Mo, 13.08. 8:00 10500 m 4/8 0/8 - - -
Mo, 13.08. 2:00 6300 m 7/8 6/8 - - -
So, 12.08. 20:00 9000 m 7/8 0/8 - - -
Ortszeit Bedeckungsgrad in Achtel und Wolkenuntergrenze
Di, 14.08. 17:30 4(2400m) 7(2700m)
Di, 14.08. 17:20 4(2400m) 7(2700m)
Di, 14.08. 17:10 7(2100m) 7(2700m)
Di, 14.08. 17:00 1(840m) 7(2100m) 7(2700m)
Di, 14.08. 16:50 1(840m) 7(2100m) 7(2700m)
Di, 14.08. 16:40 2(660m) 7(1500m) 7(2100m)
Di, 14.08. 16:30 3(630m) 7(1800m) 7(2400m)
Di, 14.08. 16:00 7(2400m) 7(3300m) 7(5400m)
Di, 14.08. 15:30 1(990m) 5(1800m) 8(2400m)
Di, 14.08. 15:00 2(900m) 5(1800m) 6(9000m)
Di, 14.08. 14:30 2(10500m) 2(10500m)
Ortszeit Luftdruck NN (hPa) Tendenz (hPa in 3 Std.)
Di, 14.08. 14:00 1011 + 0,7
Di, 14.08. 8:00 1009 + 1,1
Di, 14.08. 2:00 1008 + 1,1
Mo, 13.08. 20:00 1006 - 1,5
Mo, 13.08. 14:00 1007 - 0,3
Mo, 13.08. 8:00 1008 - 0,6
Mo, 13.08. 2:00 1011 - 1,0
So, 12.08. 20:00 1012 - 1,7
Ortszeit Luftdruck NN (hPa) Tendenz (hPa in 3 Std.)
Di, 14.08. 17:30 1012 + 0,9
Di, 14.08. 17:20 1012 keine Meldung
Di, 14.08. 17:10 1011 keine Meldung
Di, 14.08. 17:00 1011 + 0,7
Di, 14.08. 16:50 1011 keine Meldung
Di, 14.08. 16:40 1011 keine Meldung
Di, 14.08. 16:30 1011 + 0,7
Di, 14.08. 16:00 1011 + 0,7
Di, 14.08. 15:30 1011 + 0,9
Di, 14.08. 15:00 1011 + 0,5
Di, 14.08. 14:30 1011 + 0,6
Ortszeit Schneehöhe (cm)
Di, 14.08. 14:00 -
Di, 14.08. 8:00 -
Di, 14.08. 2:00 -
Mo, 13.08. 20:00 -
Mo, 13.08. 14:00 -
Mo, 13.08. 8:00 -
Mo, 13.08. 2:00 -
So, 12.08. 20:00 -
Ortszeit Schneehöhe (cm)
Di, 14.08. 17:30 -
Di, 14.08. 17:20 -
Di, 14.08. 17:10 -
Di, 14.08. 17:00 -
Di, 14.08. 16:50 -
Di, 14.08. 16:40 -
Di, 14.08. 16:30 -
Di, 14.08. 16:00 -
Di, 14.08. 15:30 -
Di, 14.08. 15:00 -
Di, 14.08. 14:30 -
Link zu dieser Seite / Seite empfehlen

Das Wetter in ...